createdAt,value
2018-12-07T00:00:05.281Z,976.82
2018-12-07T00:01:04.767Z,976.76
2018-12-07T00:02:04.911Z,976.69
2018-12-07T00:03:05.413Z,976.74
2018-12-07T00:04:04.907Z,976.76
2018-12-07T00:05:05.427Z,976.63
2018-12-07T00:06:04.908Z,976.63
2018-12-07T00:07:05.617Z,976.79
2018-12-07T00:08:04.630Z,976.76
2018-12-07T00:09:04.515Z,976.58
2018-12-07T00:10:05.043Z,976.69
2018-12-07T00:11:05.245Z,976.74
2018-12-07T00:12:05.296Z,976.66
2018-12-07T00:13:05.428Z,976.66
2018-12-07T00:14:05.474Z,976.63
2018-12-07T00:15:04.941Z,976.55
2018-12-07T00:16:04.700Z,976.52
2018-12-07T00:17:05.130Z,976.38
2018-12-07T00:18:05.193Z,976.43
2018-12-07T00:19:05.439Z,976.52
2018-12-07T00:20:04.591Z,976.40
2018-12-07T00:21:05.503Z,976.52
2018-12-07T00:22:05.019Z,976.37
2018-12-07T00:23:05.332Z,976.40
2018-12-07T00:24:04.667Z,976.40
2018-12-07T00:25:04.937Z,976.40
2018-12-07T00:26:05.298Z,976.35
2018-12-07T00:27:05.267Z,976.29
2018-12-07T00:28:10.301Z,976.23
2018-12-07T00:29:04.669Z,976.23
2018-12-07T00:30:04.964Z,976.34
2018-12-07T00:31:05.007Z,976.20
2018-12-07T00:32:05.209Z,976.20
2018-12-07T00:33:04.806Z,976.17
2018-12-07T00:34:04.929Z,976.20
2018-12-07T00:35:05.078Z,976.28
2018-12-07T00:36:05.084Z,976.23
2018-12-07T00:37:05.440Z,976.28
2018-12-07T00:38:04.608Z,976.34
2018-12-07T00:39:05.166Z,976.25
2018-12-07T00:40:05.474Z,976.28
2018-12-07T00:41:05.443Z,976.37
2018-12-07T00:42:05.108Z,976.37
2018-12-07T00:43:05.046Z,976.39
2018-12-07T00:44:05.123Z,976.28
2018-12-07T00:45:04.876Z,976.34
2018-12-07T00:46:04.845Z,976.48
2018-12-07T00:47:05.324Z,976.25
2018-12-07T00:48:05.337Z,976.31
2018-12-07T00:49:05.441Z,976.36
2018-12-07T00:50:05.078Z,976.22
2018-12-07T00:51:05.154Z,976.31
2018-12-07T00:52:05.034Z,976.28
2018-12-07T00:53:05.324Z,976.25
2018-12-07T00:54:05.897Z,976.08
2018-12-07T00:55:05.553Z,976.19
2018-12-07T00:56:04.591Z,976.19
2018-12-07T00:57:04.742Z,976.05
2018-12-07T00:58:10.050Z,976.16
2018-12-07T00:59:05.629Z,976.08
2018-12-07T01:00:05.049Z,976.16
2018-12-07T01:01:05.490Z,976.02
2018-12-07T01:02:05.152Z,976.13
2018-12-07T01:03:05.048Z,976.10
2018-12-07T01:04:04.755Z,976.05
2018-12-07T01:05:05.135Z,976.19
2018-12-07T01:06:05.336Z,976.07
2018-12-07T01:07:05.343Z,976.27
2018-12-07T01:08:04.596Z,976.13
2018-12-07T01:09:04.845Z,976.24
2018-12-07T01:10:04.711Z,976.13
2018-12-07T01:11:04.648Z,976.13
2018-12-07T01:12:04.839Z,976.07
2018-12-07T01:13:04.569Z,976.19
2018-12-07T01:14:04.669Z,976.16
2018-12-07T01:15:04.697Z,976.16
2018-12-07T01:16:05.194Z,976.05
2018-12-07T01:17:05.479Z,976.07
2018-12-07T01:18:05.162Z,976.13
2018-12-07T01:19:04.809Z,976.07
2018-12-07T01:20:05.249Z,976.16
2018-12-07T01:21:04.731Z,976.05
2018-12-07T01:22:05.103Z,976.10
2018-12-07T01:23:05.059Z,976.04
2018-12-07T01:24:05.408Z,976.13
2018-12-07T01:25:04.786Z,975.99
2018-12-07T01:26:04.900Z,976.07
2018-12-07T01:27:04.839Z,975.96
2018-12-07T01:28:09.997Z,975.96
2018-12-07T01:29:05.417Z,976.02
2018-12-07T01:30:05.477Z,975.99
2018-12-07T01:31:05.445Z,975.96
2018-12-07T01:32:04.648Z,975.99
2018-12-07T01:33:04.748Z,975.90
2018-12-07T01:34:05.366Z,975.90
2018-12-07T01:35:04.619Z,975.98
2018-12-07T01:36:05.315Z,975.81
2018-12-07T01:37:04.541Z,975.76
2018-12-07T01:38:04.844Z,975.84
2018-12-07T01:39:04.799Z,975.78
2018-12-07T01:40:05.596Z,975.84
2018-12-07T01:41:05.253Z,975.90
2018-12-07T01:42:05.542Z,975.84
2018-12-07T01:43:04.969Z,975.75
2018-12-07T01:44:05.435Z,975.84
2018-12-07T01:45:05.431Z,975.81
2018-12-07T01:46:04.953Z,976.04
2018-12-07T01:47:05.003Z,975.89
2018-12-07T01:48:04.724Z,975.75
2018-12-07T01:49:04.897Z,975.89
2018-12-07T01:50:05.006Z,975.83
2018-12-07T01:51:05.118Z,975.86
2018-12-07T01:52:05.025Z,975.75
2018-12-07T01:53:04.557Z,975.86
2018-12-07T01:54:04.725Z,975.78
2018-12-07T01:55:04.883Z,975.72
2018-12-07T01:56:04.625Z,975.78
2018-12-07T01:57:04.746Z,975.80
2018-12-07T01:58:04.876Z,975.77
2018-12-07T01:59:04.942Z,975.63
2018-12-07T02:00:05.374Z,975.72
2018-12-07T02:01:04.695Z,975.74
2018-12-07T02:02:04.968Z,975.86
2018-12-07T02:03:04.938Z,975.89
2018-12-07T02:04:05.143Z,975.83
2018-12-07T02:05:04.658Z,975.77
2018-12-07T02:06:05.440Z,975.86
2018-12-07T02:07:05.403Z,975.77
2018-12-07T02:08:04.975Z,975.83
2018-12-07T02:09:05.410Z,975.80
2018-12-07T02:10:04.786Z,975.80
2018-12-07T02:11:05.498Z,975.80
2018-12-07T02:12:04.791Z,975.74
2018-12-07T02:13:04.975Z,975.83
2018-12-07T02:14:05.189Z,975.77
2018-12-07T02:15:04.760Z,975.79
2018-12-07T02:16:04.982Z,975.62
2018-12-07T02:17:05.510Z,975.68
2018-12-07T02:18:05.071Z,975.57
2018-12-07T02:19:05.226Z,975.57
2018-12-07T02:20:04.490Z,975.54
2018-12-07T02:21:04.656Z,975.45
2018-12-07T02:22:04.880Z,975.51
2018-12-07T02:23:05.165Z,975.34
2018-12-07T02:24:05.205Z,975.42
2018-12-07T02:25:04.738Z,975.39
2018-12-07T02:26:05.145Z,975.34
2018-12-07T02:27:05.525Z,975.37
2018-12-07T02:28:09.716Z,975.32
2018-12-07T02:29:05.164Z,975.26
2018-12-07T02:30:05.259Z,975.29
2018-12-07T02:31:05.279Z,975.23
2018-12-07T02:32:05.415Z,975.23
2018-12-07T02:33:04.978Z,975.32
2018-12-07T02:34:05.127Z,975.23
2018-12-07T02:35:05.258Z,975.29
2018-12-07T02:36:04.980Z,975.23
2018-12-07T02:37:05.525Z,975.14
2018-12-07T02:38:05.227Z,975.17
2018-12-07T02:39:05.260Z,975.03
2018-12-07T02:40:05.374Z,974.97
2018-12-07T02:41:04.981Z,974.97
2018-12-07T02:42:05.043Z,975.11
2018-12-07T02:43:05.357Z,974.97
2018-12-07T02:44:05.373Z,975.05
2018-12-07T02:45:05.501Z,975.00
2018-12-07T02:46:04.874Z,975.00
2018-12-07T02:47:05.018Z,974.97
2018-12-07T02:48:10.167Z,975.00
2018-12-07T02:49:04.649Z,974.95
2018-12-07T02:50:04.601Z,975.11
2018-12-07T02:51:04.814Z,974.97
2018-12-07T02:52:04.849Z,975.17
2018-12-07T02:53:05.352Z,975.05
2018-12-07T02:54:05.404Z,974.92
2018-12-07T02:55:04.801Z,974.92
2018-12-07T02:56:05.498Z,974.95
2018-12-07T02:57:04.993Z,974.96
2018-12-07T02:58:05.225Z,974.96
2018-12-07T02:59:04.755Z,974.89
2018-12-07T03:00:04.818Z,974.92
2018-12-07T03:01:05.419Z,974.96
2018-12-07T03:02:05.162Z,974.89
2018-12-07T03:03:04.750Z,974.89
2018-12-07T03:04:05.091Z,974.86
2018-12-07T03:05:05.274Z,974.72
2018-12-07T03:06:04.935Z,974.89
2018-12-07T03:07:05.394Z,974.69
2018-12-07T03:08:05.182Z,974.77
2018-12-07T03:09:05.336Z,974.74
2018-12-07T03:10:04.658Z,974.72
2018-12-07T03:11:05.253Z,974.74
2018-12-07T03:12:04.810Z,974.72
2018-12-07T03:13:05.124Z,974.63
2018-12-07T03:14:04.504Z,974.77
2018-12-07T03:15:05.218Z,974.74
2018-12-07T03:16:05.155Z,974.63
2018-12-07T03:17:05.268Z,974.60
2018-12-07T03:18:05.434Z,974.72
2018-12-07T03:19:04.627Z,974.72
2018-12-07T03:20:04.922Z,974.63
2018-12-07T03:21:05.058Z,974.69
2018-12-07T03:22:05.245Z,974.63
2018-12-07T03:23:05.190Z,974.77
2018-12-07T03:24:04.837Z,974.66
2018-12-07T03:25:04.601Z,974.74
2018-12-07T03:26:05.362Z,974.69
2018-12-07T03:27:05.482Z,974.71
2018-12-07T03:28:09.807Z,974.69
2018-12-07T03:29:05.222Z,974.74
2018-12-07T03:30:04.664Z,974.66
2018-12-07T03:31:04.820Z,974.74
2018-12-07T03:32:05.374Z,974.57
2018-12-07T03:33:05.804Z,974.77
2018-12-07T03:34:05.440Z,974.46
2018-12-07T03:35:04.588Z,974.65
2018-12-07T03:36:04.951Z,974.57
2018-12-07T03:37:05.054Z,974.68
2018-12-07T03:38:04.624Z,974.65
2018-12-07T03:39:04.684Z,974.48
2018-12-07T03:40:04.853Z,974.54
2018-12-07T03:41:05.032Z,974.51
2018-12-07T03:42:04.691Z,974.45
2018-12-07T03:43:04.722Z,974.71
2018-12-07T03:44:05.226Z,974.40
2018-12-07T03:45:04.857Z,974.37
2018-12-07T03:46:05.243Z,974.57
2018-12-07T03:47:04.811Z,974.42
2018-12-07T03:48:10.148Z,974.42
2018-12-07T03:49:04.639Z,974.34
2018-12-07T03:50:05.204Z,974.51
2018-12-07T03:51:05.172Z,974.39
2018-12-07T03:52:04.874Z,974.45
2018-12-07T03:53:05.130Z,974.37
2018-12-07T03:54:05.200Z,974.31
2018-12-07T03:55:05.229Z,974.54
2018-12-07T03:56:04.860Z,974.45
2018-12-07T03:57:05.125Z,974.37
2018-12-07T03:58:05.236Z,974.28
2018-12-07T03:59:05.393Z,974.45
2018-12-07T04:00:05.458Z,974.42
2018-12-07T04:01:04.912Z,974.31
2018-12-07T04:02:05.401Z,974.28
2018-12-07T04:03:04.610Z,974.37
2018-12-07T04:04:04.913Z,974.31
2018-12-07T04:05:04.832Z,974.31
2018-12-07T04:06:04.946Z,974.39
2018-12-07T04:07:04.991Z,974.28
2018-12-07T04:08:05.628Z,974.19
2018-12-07T04:09:04.523Z,974.25
2018-12-07T04:10:04.926Z,974.28
2018-12-07T04:11:05.061Z,974.22
2018-12-07T04:12:05.076Z,974.31
2018-12-07T04:13:04.947Z,974.34
2018-12-07T04:14:05.396Z,974.28
2018-12-07T04:15:04.979Z,974.28
2018-12-07T04:16:05.038Z,974.22
2018-12-07T04:17:05.194Z,974.22
2018-12-07T04:18:04.543Z,974.34
2018-12-07T04:19:04.672Z,974.25
2018-12-07T04:20:05.145Z,974.31
2018-12-07T04:21:05.073Z,974.22
2018-12-07T04:22:04.763Z,974.31
2018-12-07T04:23:04.920Z,974.31
2018-12-07T04:24:05.240Z,974.31
2018-12-07T04:25:04.556Z,974.28
2018-12-07T04:26:05.073Z,974.19
2018-12-07T04:27:05.101Z,974.22
2018-12-07T04:28:05.117Z,974.19
2018-12-07T04:29:05.275Z,974.28
2018-12-07T04:30:04.718Z,974.25
2018-12-07T04:31:05.126Z,974.19
2018-12-07T04:32:05.168Z,974.19
2018-12-07T04:33:05.139Z,974.19
2018-12-07T04:34:04.673Z,974.13
2018-12-07T04:35:04.702Z,974.02
2018-12-07T04:36:07.937Z,974.13
2018-12-07T04:37:04.690Z,974.02
2018-12-07T04:38:05.108Z,974.02
2018-12-07T04:39:05.405Z,973.96
2018-12-07T04:40:10.360Z,974.05
2018-12-07T04:41:04.795Z,974.05
2018-12-07T04:42:04.753Z,973.90
2018-12-07T04:43:04.906Z,973.85
2018-12-07T04:44:05.009Z,973.82
2018-12-07T04:45:05.194Z,973.90
2018-12-07T04:46:05.376Z,973.79
2018-12-07T04:47:04.569Z,973.87
2018-12-07T04:48:04.956Z,973.87
2018-12-07T04:49:04.974Z,973.87
2018-12-07T04:50:05.251Z,973.79
2018-12-07T04:51:04.610Z,973.82
2018-12-07T04:52:05.141Z,973.79
2018-12-07T04:53:05.265Z,973.73
2018-12-07T04:54:04.645Z,973.76
2018-12-07T04:55:04.721Z,973.70
2018-12-07T04:56:05.352Z,973.62
2018-12-07T04:57:04.825Z,973.70
2018-12-07T04:58:04.957Z,973.56
2018-12-07T04:59:05.115Z,973.79
2018-12-07T05:00:04.673Z,973.73
2018-12-07T05:01:05.090Z,973.64
2018-12-07T05:02:05.430Z,973.56
2018-12-07T05:03:04.606Z,973.70
2018-12-07T05:04:05.128Z,973.70
2018-12-07T05:05:05.416Z,973.54
2018-12-07T05:06:04.930Z,973.61
2018-12-07T05:07:05.282Z,973.58
2018-12-07T05:08:04.831Z,973.73
2018-12-07T05:09:05.264Z,973.61
2018-12-07T05:10:04.715Z,973.61
2018-12-07T05:11:04.801Z,973.76
2018-12-07T05:12:05.051Z,973.73
2018-12-07T05:13:05.178Z,973.64
2018-12-07T05:14:05.443Z,973.67
2018-12-07T05:15:05.506Z,973.78
2018-12-07T05:16:05.814Z,973.73
2018-12-07T05:17:04.731Z,973.84
2018-12-07T05:18:04.737Z,973.73
2018-12-07T05:19:04.769Z,973.61
2018-12-07T05:20:05.269Z,973.73
2018-12-07T05:21:05.281Z,973.64
2018-12-07T05:22:04.608Z,973.61
2018-12-07T05:23:05.175Z,973.67
2018-12-07T05:24:05.273Z,973.70
2018-12-07T05:25:05.964Z,973.51
2018-12-07T05:26:05.027Z,973.64
2018-12-07T05:27:05.076Z,973.61
2018-12-07T05:28:09.621Z,973.67
2018-12-07T05:29:05.130Z,973.67
2018-12-07T05:30:05.293Z,973.64
2018-12-07T05:31:05.422Z,973.61
2018-12-07T05:32:05.073Z,973.67
2018-12-07T05:33:04.632Z,973.51
2018-12-07T05:34:04.733Z,973.64
2018-12-07T05:35:05.462Z,973.51
2018-12-07T05:36:04.954Z,973.56
2018-12-07T05:37:05.091Z,973.67
2018-12-07T05:38:05.130Z,973.55
2018-12-07T05:39:04.801Z,973.58
2018-12-07T05:40:04.830Z,973.58
2018-12-07T05:41:04.990Z,973.51
2018-12-07T05:42:05.101Z,973.67
2018-12-07T05:43:05.399Z,973.61
2018-12-07T05:44:05.441Z,973.61
2018-12-07T05:45:05.535Z,973.58
2018-12-07T05:46:04.739Z,973.61
2018-12-07T05:47:04.875Z,973.58
2018-12-07T05:48:10.364Z,973.53
2018-12-07T05:49:04.890Z,973.61
2018-12-07T05:50:05.108Z,973.55
2018-12-07T05:51:05.189Z,973.55
2018-12-07T05:52:05.501Z,973.51
2018-12-07T05:53:04.715Z,973.58
2018-12-07T05:54:04.742Z,973.75
2018-12-07T05:55:05.421Z,973.45
2018-12-07T05:56:05.082Z,973.64
2018-12-07T05:57:05.226Z,973.55
2018-12-07T05:58:04.836Z,973.67
2018-12-07T05:59:05.622Z,973.48
2018-12-07T06:00:04.449Z,973.48
2018-12-07T06:01:05.189Z,973.55
2018-12-07T06:02:04.753Z,973.42
2018-12-07T06:03:05.288Z,973.61
2018-12-07T06:04:05.392Z,973.58
2018-12-07T06:06:11.034Z,973.61
2018-12-07T06:07:06.131Z,973.67
2018-12-07T06:08:05.581Z,973.55
2018-12-07T06:09:05.521Z,973.53
2018-12-07T06:10:04.521Z,973.48
2018-12-07T06:11:04.706Z,973.61
2018-12-07T06:12:04.768Z,973.55
2018-12-07T06:13:04.792Z,973.61
2018-12-07T06:14:05.365Z,973.45
2018-12-07T06:15:04.611Z,973.61
2018-12-07T06:16:05.318Z,973.66
2018-12-07T06:17:05.376Z,973.50
2018-12-07T06:18:05.173Z,973.69
2018-12-07T06:19:05.388Z,973.53
2018-12-07T06:20:05.567Z,973.55
2018-12-07T06:21:04.894Z,973.55
2018-12-07T06:22:05.378Z,973.55
2018-12-07T06:23:04.728Z,973.50
2018-12-07T06:24:04.812Z,973.42
2018-12-07T06:25:04.956Z,973.53
2018-12-07T06:26:05.357Z,973.63
2018-12-07T06:27:04.708Z,973.47
2018-12-07T06:28:09.832Z,973.53
2018-12-07T06:29:05.220Z,973.61
2018-12-07T06:30:04.910Z,973.50
2018-12-07T06:31:05.010Z,973.61
2018-12-07T06:32:04.496Z,973.53
2018-12-07T06:33:05.589Z,973.58
2018-12-07T06:34:05.156Z,973.50
2018-12-07T06:35:04.903Z,973.55
2018-12-07T06:36:04.991Z,973.50
2018-12-07T06:37:05.056Z,973.55
2018-12-07T06:38:05.448Z,973.42
2018-12-07T06:39:05.574Z,973.50
2018-12-07T06:40:04.573Z,973.48
2018-12-07T06:41:04.632Z,973.50
2018-12-07T06:42:05.317Z,973.55
2018-12-07T06:43:05.289Z,973.50
2018-12-07T06:44:05.499Z,973.50
2018-12-07T06:45:04.970Z,973.39
2018-12-07T06:46:05.406Z,973.39
2018-12-07T06:47:04.576Z,973.30
2018-12-07T06:48:09.675Z,973.25
2018-12-07T06:49:05.003Z,973.36
2018-12-07T06:50:05.163Z,973.30
2018-12-07T06:51:04.606Z,973.33
2018-12-07T06:52:04.878Z,973.47
2018-12-07T06:53:04.938Z,973.27
2018-12-07T06:54:05.267Z,973.19
2018-12-07T06:55:04.469Z,973.30
2018-12-07T06:56:05.052Z,973.36
2018-12-07T06:57:04.523Z,973.13
2018-12-07T06:58:05.257Z,973.27
2018-12-07T06:59:04.613Z,973.16
2018-12-07T07:00:04.944Z,973.10
2018-12-07T07:01:04.914Z,973.30
2018-12-07T07:02:05.456Z,973.39
2018-12-07T07:03:04.642Z,973.19
2018-12-07T07:04:04.938Z,973.24
2018-12-07T07:05:05.215Z,973.33
2018-12-07T07:06:05.556Z,973.33
2018-12-07T07:07:05.695Z,973.22
2018-12-07T07:08:05.503Z,973.19
2018-12-07T07:09:05.526Z,973.19
2018-12-07T07:10:04.801Z,973.27
2018-12-07T07:11:04.907Z,973.33
2018-12-07T07:12:05.245Z,973.10
2018-12-07T07:13:05.195Z,973.27
2018-12-07T07:14:05.229Z,973.19
2018-12-07T07:15:05.329Z,973.16
2018-12-07T07:16:04.915Z,973.21
2018-12-07T07:17:04.583Z,973.10
2018-12-07T07:18:04.576Z,973.01
2018-12-07T07:19:04.754Z,973.07
2018-12-07T07:20:04.941Z,973.19
2018-12-07T07:21:04.595Z,973.10
2018-12-07T07:22:04.758Z,972.96
2018-12-07T07:23:04.809Z,973.07
2018-12-07T07:24:04.892Z,973.07
2018-12-07T07:25:05.131Z,972.96
2018-12-07T07:26:05.113Z,973.07
2018-12-07T07:27:04.750Z,973.16
2018-12-07T07:28:09.827Z,973.19
2018-12-07T07:29:04.671Z,973.10
2018-12-07T07:30:04.914Z,973.13
2018-12-07T07:31:04.951Z,973.07
2018-12-07T07:32:04.958Z,973.13
2018-12-07T07:33:05.421Z,973.13
2018-12-07T07:34:04.740Z,973.04
2018-12-07T07:35:05.488Z,973.16
2018-12-07T07:36:04.856Z,972.99
2018-12-07T07:37:04.887Z,973.04
2018-12-07T07:38:04.999Z,973.05
2018-12-07T07:39:05.422Z,973.02
2018-12-07T07:40:05.468Z,972.90
2018-12-07T07:41:04.917Z,973.04
2018-12-07T07:42:04.549Z,972.96
2018-12-07T07:43:05.062Z,972.93
2018-12-07T07:44:05.068Z,972.85
2018-12-07T07:45:05.229Z,972.96
2018-12-07T07:46:04.652Z,972.99
2018-12-07T07:47:04.878Z,972.99
2018-12-07T07:48:04.509Z,972.99
2018-12-07T07:49:04.887Z,972.99
2018-12-07T07:50:05.413Z,973.10
2018-12-07T07:51:04.803Z,972.99
2018-12-07T07:52:04.832Z,972.99
2018-12-07T07:53:05.466Z,972.90
2018-12-07T07:54:04.642Z,972.93
2018-12-07T07:55:05.078Z,972.99
2018-12-07T07:56:05.388Z,972.96
2018-12-07T07:57:04.616Z,972.82
2018-12-07T07:58:04.677Z,972.90
2018-12-07T07:59:04.825Z,972.88
2018-12-07T08:00:05.395Z,972.99
2018-12-07T08:01:04.825Z,972.76
2018-12-07T08:02:05.556Z,972.88
2018-12-07T08:03:04.617Z,972.96
2018-12-07T08:04:04.659Z,972.93
2018-12-07T08:05:10.145Z,972.88
2018-12-07T08:06:04.503Z,972.96
2018-12-07T08:07:04.737Z,972.93
2018-12-07T08:08:04.825Z,972.76
2018-12-07T08:09:04.877Z,972.93
2018-12-07T08:10:04.829Z,972.82
2018-12-07T08:11:05.122Z,972.93
2018-12-07T08:12:04.979Z,972.90
2018-12-07T08:13:04.668Z,972.93
2018-12-07T08:14:04.648Z,972.87
2018-12-07T08:15:04.855Z,972.85
2018-12-07T08:16:05.402Z,972.70
2018-12-07T08:17:05.180Z,972.76
2018-12-07T08:18:05.424Z,972.85
2018-12-07T08:19:05.428Z,972.73
2018-12-07T08:20:05.119Z,972.68
2018-12-07T08:21:05.748Z,972.82
2018-12-07T08:22:05.304Z,972.68
2018-12-07T08:23:04.562Z,972.76
2018-12-07T08:24:04.649Z,972.85
2018-12-07T08:25:04.659Z,972.65
2018-12-07T08:26:04.676Z,972.87
2018-12-07T08:27:04.793Z,972.79
2018-12-07T08:28:05.223Z,972.70
2018-12-07T08:29:05.301Z,972.82
2018-12-07T08:30:04.728Z,972.73
2018-12-07T08:31:05.286Z,972.79
2018-12-07T08:32:04.773Z,972.73
2018-12-07T08:33:04.999Z,972.67
2018-12-07T08:34:05.012Z,972.65
2018-12-07T08:35:04.521Z,972.65
2018-12-07T08:36:05.172Z,972.40
2018-12-07T08:37:05.343Z,972.48
2018-12-07T08:38:04.956Z,972.37
2018-12-07T08:39:09.933Z,972.62
2018-12-07T08:40:05.480Z,972.56
2018-12-07T08:41:04.762Z,972.34
2018-12-07T08:42:07.325Z,972.48
2018-12-07T08:43:04.973Z,972.48
2018-12-07T08:44:05.208Z,972.45
2018-12-07T08:45:05.513Z,972.42
2018-12-07T08:46:04.702Z,972.34
2018-12-07T08:47:05.098Z,972.34
2018-12-07T08:48:05.004Z,972.22
2018-12-07T08:49:05.505Z,972.19
2018-12-07T08:50:04.523Z,972.42
2018-12-07T08:51:04.645Z,972.31
2018-12-07T08:52:04.911Z,972.33
2018-12-07T08:53:05.273Z,972.14
2018-12-07T08:54:05.557Z,972.31
2018-12-07T08:55:04.826Z,972.19
2018-12-07T08:56:05.013Z,972.31
2018-12-07T08:57:04.587Z,972.25
2018-12-07T08:58:04.605Z,972.25
2018-12-07T08:59:05.109Z,972.16
2018-12-07T09:00:05.119Z,972.22
2018-12-07T09:01:04.779Z,972.25
2018-12-07T09:02:04.724Z,972.08
2018-12-07T09:03:05.177Z,972.19
2018-12-07T09:04:05.524Z,972.11
2018-12-07T09:05:05.031Z,972.05
2018-12-07T09:06:04.974Z,972.28
2018-12-07T09:07:05.472Z,972.22
2018-12-07T09:08:05.162Z,972.13
2018-12-07T09:09:04.793Z,972.16
2018-12-07T09:10:05.406Z,972.11
2018-12-07T09:11:05.269Z,971.99
2018-12-07T09:12:04.725Z,972.05
2018-12-07T09:13:04.977Z,972.11
2018-12-07T09:14:04.940Z,972.05
2018-12-07T09:15:04.947Z,972.02
2018-12-07T09:16:05.330Z,971.99
2018-12-07T09:17:05.337Z,972.02
2018-12-07T09:18:04.893Z,972.05
2018-12-07T09:19:05.003Z,971.91
2018-12-07T09:20:05.477Z,971.93
2018-12-07T09:21:05.010Z,971.96
2018-12-07T09:22:05.105Z,971.96
2018-12-07T09:23:04.856Z,971.91
2018-12-07T09:24:05.191Z,971.85
2018-12-07T09:25:05.337Z,971.93
2018-12-07T09:26:04.688Z,971.85
2018-12-07T09:27:05.268Z,971.83
2018-12-07T09:28:10.405Z,971.85
2018-12-07T09:29:04.818Z,971.85
2018-12-07T09:30:05.310Z,971.68
2018-12-07T09:31:05.240Z,971.80
2018-12-07T09:32:04.549Z,971.83
2018-12-07T09:33:04.985Z,971.71
2018-12-07T09:34:05.607Z,971.80
2018-12-07T09:35:04.691Z,971.51
2018-12-07T09:36:04.876Z,971.71
2018-12-07T09:37:04.606Z,971.51
2018-12-07T09:38:05.128Z,971.60
2018-12-07T09:39:04.682Z,971.63
2018-12-07T09:40:04.790Z,971.71
2018-12-07T09:41:04.939Z,971.60
2018-12-07T09:42:04.922Z,971.54
2018-12-07T09:43:04.536Z,971.63
2018-12-07T09:44:05.243Z,971.51
2018-12-07T09:45:05.429Z,971.60
2018-12-07T09:46:05.138Z,971.63
2018-12-07T09:47:05.335Z,971.60
2018-12-07T09:48:04.821Z,971.57
2018-12-07T09:49:05.007Z,971.62
2018-12-07T09:50:05.197Z,971.45
2018-12-07T09:51:04.619Z,971.51
2018-12-07T09:52:05.084Z,971.48
2018-12-07T09:53:05.426Z,971.40
2018-12-07T09:54:04.809Z,971.60
2018-12-07T09:55:04.857Z,971.45
2018-12-07T09:56:05.114Z,971.54
2018-12-07T09:57:05.088Z,971.34
2018-12-07T09:58:05.099Z,971.48
2018-12-07T09:59:05.010Z,971.45
2018-12-07T10:00:04.630Z,971.45
2018-12-07T10:01:05.062Z,971.42
2018-12-07T10:02:05.603Z,971.28
2018-12-07T10:03:04.968Z,971.37
2018-12-07T10:04:05.555Z,971.25
2018-12-07T10:05:05.018Z,971.28
2018-12-07T10:06:04.633Z,971.31
2018-12-07T10:07:04.961Z,971.25
2018-12-07T10:08:05.102Z,971.19
2018-12-07T10:09:05.180Z,971.25
2018-12-07T10:10:04.881Z,971.16
2018-12-07T10:11:04.871Z,971.11
2018-12-07T10:12:05.385Z,971.27
2018-12-07T10:13:08.437Z,971.25
2018-12-07T10:14:05.062Z,971.11
2018-12-07T10:15:05.391Z,971.11
2018-12-07T10:16:05.105Z,971.07
2018-12-07T10:17:05.498Z,971.13
2018-12-07T10:18:05.037Z,971.19
2018-12-07T10:19:05.246Z,970.90
2018-12-07T10:20:04.911Z,970.93
2018-12-07T10:21:05.161Z,970.93
2018-12-07T10:22:04.573Z,970.87
2018-12-07T10:23:04.820Z,970.96
2018-12-07T10:24:04.926Z,970.96
2018-12-07T10:25:04.908Z,970.90
2018-12-07T10:26:05.504Z,970.98
2018-12-07T10:27:05.081Z,970.84
2018-12-07T10:28:10.445Z,970.87
2018-12-07T10:29:04.831Z,970.70
2018-12-07T10:30:05.135Z,970.64
2018-12-07T10:31:04.689Z,970.81
2018-12-07T10:32:05.253Z,970.70
2018-12-07T10:33:05.513Z,970.70
2018-12-07T10:34:05.017Z,970.52
2018-12-07T10:35:05.522Z,970.70
2018-12-07T10:36:04.506Z,970.64
2018-12-07T10:37:04.649Z,970.69
2018-12-07T10:38:04.818Z,970.58
2018-12-07T10:39:05.450Z,970.69
2018-12-07T10:40:05.484Z,970.58
2018-12-07T10:41:04.719Z,970.47
2018-12-07T10:42:05.117Z,970.52
2018-12-07T10:43:05.229Z,970.44
2018-12-07T10:44:04.550Z,970.49
2018-12-07T10:45:05.112Z,970.55
2018-12-07T10:46:05.032Z,970.36
2018-12-07T10:47:04.634Z,970.52
2018-12-07T10:48:04.653Z,970.42
2018-12-07T10:49:04.618Z,970.31
2018-12-07T10:50:04.941Z,970.44
2018-12-07T10:51:08.551Z,970.42
2018-12-07T10:52:05.118Z,970.39
2018-12-07T10:53:04.713Z,970.53
2018-12-07T10:54:04.749Z,970.42
2018-12-07T10:55:04.795Z,970.50
2018-12-07T10:56:05.050Z,970.44
2018-12-07T10:57:04.550Z,970.47
2018-12-07T10:58:04.719Z,970.47
2018-12-07T10:59:04.728Z,970.42
2018-12-07T11:00:05.433Z,970.44
2018-12-07T11:01:04.875Z,970.50
2018-12-07T11:02:05.164Z,970.47
2018-12-07T11:03:04.697Z,970.40
2018-12-07T11:04:05.286Z,970.40
2018-12-07T11:05:04.936Z,970.42
2018-12-07T11:06:04.931Z,970.26
2018-12-07T11:07:05.384Z,970.32
2018-12-07T11:08:04.921Z,970.23
2018-12-07T11:09:05.411Z,970.35
2018-12-07T11:10:04.569Z,970.35
2018-12-07T11:11:04.813Z,970.40
2018-12-07T11:12:05.028Z,970.38
2018-12-07T11:13:04.543Z,970.29
2018-12-07T11:14:05.116Z,970.38
2018-12-07T11:15:05.326Z,970.24
2018-12-07T11:16:05.045Z,970.18
2018-12-07T11:17:05.096Z,970.24
2018-12-07T11:18:05.306Z,970.18
2018-12-07T11:19:04.733Z,970.16
2018-12-07T11:20:04.858Z,970.10
2018-12-07T11:21:05.078Z,969.98
2018-12-07T11:22:05.097Z,970.04
2018-12-07T11:23:05.464Z,970.04
2018-12-07T11:24:04.493Z,970.02
2018-12-07T11:25:04.640Z,969.85
2018-12-07T11:26:05.163Z,969.99
2018-12-07T11:27:05.939Z,969.88
2018-12-07T11:28:04.679Z,969.96
2018-12-07T11:29:04.982Z,969.96
2018-12-07T11:30:04.666Z,969.85
2018-12-07T11:31:04.635Z,969.77
2018-12-07T11:32:04.642Z,969.71
2018-12-07T11:33:04.820Z,969.71
2018-12-07T11:34:04.817Z,969.69
2018-12-07T11:35:05.416Z,969.63
2018-12-07T11:36:08.565Z,969.77
2018-12-07T11:37:05.156Z,969.60
2018-12-07T11:38:05.335Z,969.71
2018-12-07T11:39:04.514Z,969.63
2018-12-07T11:40:04.733Z,969.63
2018-12-07T11:41:04.976Z,969.80
2018-12-07T11:42:04.665Z,969.63
2018-12-07T11:43:04.762Z,969.52
2018-12-07T11:44:05.496Z,969.72
2018-12-07T11:45:04.582Z,969.69
2018-12-07T11:46:04.857Z,969.69
2018-12-07T11:47:05.386Z,969.69
2018-12-07T11:48:04.928Z,969.66
2018-12-07T11:49:05.130Z,969.49
2018-12-07T11:50:05.319Z,969.54
2018-12-07T11:51:04.776Z,969.72
2018-12-07T11:52:05.087Z,969.54
2018-12-07T11:53:05.224Z,969.60
2018-12-07T11:54:05.338Z,969.51
2018-12-07T11:55:04.784Z,969.51
2018-12-07T11:56:04.868Z,969.46
2018-12-07T11:57:04.874Z,969.60
2018-12-07T11:58:04.959Z,969.48
2018-12-07T11:59:05.162Z,969.51
2018-12-07T12:00:05.429Z,969.37
2018-12-07T12:01:04.606Z,969.43
2018-12-07T12:02:05.172Z,969.26
2018-12-07T12:03:04.870Z,969.34
2018-12-07T12:04:09.610Z,969.34
2018-12-07T12:05:05.097Z,969.20
2018-12-07T12:06:05.254Z,969.20
2018-12-07T12:07:04.776Z,969.46
2018-12-07T12:08:05.050Z,969.23
2018-12-07T12:09:05.143Z,969.20
2018-12-07T12:10:05.173Z,969.17
2018-12-07T12:11:05.394Z,969.14
2018-12-07T12:12:05.471Z,969.06
2018-12-07T12:13:05.445Z,969.14
2018-12-07T12:14:04.871Z,969.00
2018-12-07T12:15:04.948Z,969.17
2018-12-07T12:16:06.602Z,969.14
2018-12-07T12:17:05.263Z,969.03
2018-12-07T12:18:05.311Z,969.11
2018-12-07T12:19:04.744Z,969.06
2018-12-07T12:20:05.068Z,968.97
2018-12-07T12:21:05.207Z,969.05
2018-12-07T12:22:05.262Z,969.00
2018-12-07T12:23:05.337Z,968.97
2018-12-07T12:24:04.642Z,968.83
2018-12-07T12:25:04.836Z,969.00
2018-12-07T12:26:04.886Z,969.03
2018-12-07T12:27:05.169Z,968.86
2018-12-07T12:28:04.491Z,968.85
2018-12-07T12:29:04.648Z,968.91